sensor_id;sensor_type;location;lat;lon;timestamp;temperature;humidity
23237;DHT22;11787;52.018;8.570;2023-05-10T00:01:25;15.70;99.90
23237;DHT22;11787;52.018;8.570;2023-05-10T00:03:50;15.70;99.90
23237;DHT22;11787;52.018;8.570;2023-05-10T00:06:16;15.70;99.90
23237;DHT22;11787;52.018;8.570;2023-05-10T00:08:42;15.70;99.90
23237;DHT22;11787;52.018;8.570;2023-05-10T00:11:08;15.70;99.90
23237;DHT22;11787;52.018;8.570;2023-05-10T00:13:33;15.70;99.90
23237;DHT22;11787;52.018;8.570;2023-05-10T00:15:59;15.60;99.90
23237;DHT22;11787;52.018;8.570;2023-05-10T00:18:24;15.70;99.90
23237;DHT22;11787;52.018;8.570;2023-05-10T00:20:50;15.70;99.90
23237;DHT22;11787;52.018;8.570;2023-05-10T00:23:16;15.70;99.90
23237;DHT22;11787;52.018;8.570;2023-05-10T00:25:41;15.70;99.90
23237;DHT22;11787;52.018;8.570;2023-05-10T00:28:07;15.70;99.90
23237;DHT22;11787;52.018;8.570;2023-05-10T00:30:33;15.70;99.90
23237;DHT22;11787;52.018;8.570;2023-05-10T00:32:58;15.70;99.90
23237;DHT22;11787;52.018;8.570;2023-05-10T00:35:24;15.70;99.90
23237;DHT22;11787;52.018;8.570;2023-05-10T00:37:49;15.60;99.90
23237;DHT22;11787;52.018;8.570;2023-05-10T00:40:15;15.60;99.90
23237;DHT22;11787;52.018;8.570;2023-05-10T00:42:41;15.60;99.90
23237;DHT22;11787;52.018;8.570;2023-05-10T00:45:07;15.60;99.90
23237;DHT22;11787;52.018;8.570;2023-05-10T00:47:32;15.60;99.90
23237;DHT22;11787;52.018;8.570;2023-05-10T00:49:59;15.60;99.90
23237;DHT22;11787;52.018;8.570;2023-05-10T00:52:26;15.60;99.90
23237;DHT22;11787;52.018;8.570;2023-05-10T00:54:52;15.60;99.90
23237;DHT22;11787;52.018;8.570;2023-05-10T00:57:17;15.60;99.90
23237;DHT22;11787;52.018;8.570;2023-05-10T00:59:43;15.60;99.90
23237;DHT22;11787;52.018;8.570;2023-05-10T01:02:09;15.50;99.90
23237;DHT22;11787;52.018;8.570;2023-05-10T01:04:35;15.60;99.90
23237;DHT22;11787;52.018;8.570;2023-05-10T01:07:00;15.60;99.90
23237;DHT22;11787;52.018;8.570;2023-05-10T01:09:26;15.50;99.90
23237;DHT22;11787;52.018;8.570;2023-05-10T01:11:52;15.50;99.90
23237;DHT22;11787;52.018;8.570;2023-05-10T01:14:18;15.50;99.90
23237;DHT22;11787;52.018;8.570;2023-05-10T01:16:44;15.50;99.90
23237;DHT22;11787;52.018;8.570;2023-05-10T01:19:18;15.50;99.90
23237;DHT22;11787;52.018;8.570;2023-05-10T01:27:45;15.40;99.90
23237;DHT22;11787;52.018;8.570;2023-05-10T01:33:10;15.30;99.90
23237;DHT22;11787;52.018;8.570;2023-05-10T01:38:22;15.30;99.90
23237;DHT22;11787;52.018;8.570;2023-05-10T01:43:39;15.30;99.90
23237;DHT22;11787;52.018;8.570;2023-05-10T01:46:14;15.30;99.90
23237;DHT22;11787;52.018;8.570;2023-05-10T01:48:47;15.30;99.90
23237;DHT22;11787;52.018;8.570;2023-05-10T01:51:19;15.30;99.90
23237;DHT22;11787;52.018;8.570;2023-05-10T01:53:46;15.30;99.90
23237;DHT22;11787;52.018;8.570;2023-05-10T01:56:13;15.20;99.90
23237;DHT22;11787;52.018;8.570;2023-05-10T01:58:40;15.20;99.90
23237;DHT22;11787;52.018;8.570;2023-05-10T02:01:10;15.20;99.90
23237;DHT22;11787;52.018;8.570;2023-05-10T02:03:36;15.10;99.90
23237;DHT22;11787;52.018;8.570;2023-05-10T02:06:04;15.10;99.90
23237;DHT22;11787;52.018;8.570;2023-05-10T02:08:31;15.00;99.90
23237;DHT22;11787;52.018;8.570;2023-05-10T02:10:58;14.90;99.90
23237;DHT22;11787;52.018;8.570;2023-05-10T02:13:25;14.80;99.90
23237;DHT22;11787;52.018;8.570;2023-05-10T02:15:53;14.80;99.90
23237;DHT22;11787;52.018;8.570;2023-05-10T02:18:20;14.60;99.90
23237;DHT22;11787;52.018;8.570;2023-05-10T02:20:47;14.60;99.90
23237;DHT22;11787;52.018;8.570;2023-05-10T02:23:14;14.60;99.90
23237;DHT22;11787;52.018;8.570;2023-05-10T02:25:41;14.60;99.90
23237;DHT22;11787;52.018;8.570;2023-05-10T02:28:08;14.60;99.90
23237;DHT22;11787;52.018;8.570;2023-05-10T02:30:35;14.60;99.90
23237;DHT22;11787;52.018;8.570;2023-05-10T02:33:03;14.60;99.90
23237;DHT22;11787;52.018;8.570;2023-05-10T02:35:30;14.60;99.90
23237;DHT22;11787;52.018;8.570;2023-05-10T02:37:58;14.50;99.90
23237;DHT22;11787;52.018;8.570;2023-05-10T02:40:24;14.60;99.90
23237;DHT22;11787;52.018;8.570;2023-05-10T02:42:52;14.60;99.90
23237;DHT22;11787;52.018;8.570;2023-05-10T02:45:23;14.60;99.90
23237;DHT22;11787;52.018;8.570;2023-05-10T02:47:50;14.60;99.90
23237;DHT22;11787;52.018;8.570;2023-05-10T02:50:16;14.60;99.90
23237;DHT22;11787;52.018;8.570;2023-05-10T02:52:47;14.60;99.90
23237;DHT22;11787;52.018;8.570;2023-05-10T02:55:15;14.60;99.90
23237;DHT22;11787;52.018;8.570;2023-05-10T02:58:00;14.60;99.90
23237;DHT22;11787;52.018;8.570;2023-05-10T03:00:26;14.70;99.90
23237;DHT22;11787;52.018;8.570;2023-05-10T03:02:52;14.60;99.90
23237;DHT22;11787;52.018;8.570;2023-05-10T03:05:18;14.60;99.90
23237;DHT22;11787;52.018;8.570;2023-05-10T03:07:44;14.50;99.90
23237;DHT22;11787;52.018;8.570;2023-05-10T03:10:10;14.40;99.90
23237;DHT22;11787;52.018;8.570;2023-05-10T03:12:42;14.40;99.90
23237;DHT22;11787;52.018;8.570;2023-05-10T03:15:24;14.40;99.90
23237;DHT22;11787;52.018;8.570;2023-05-10T03:20:31;14.40;99.90
23237;DHT22;11787;52.018;8.570;2023-05-10T03:23:36;14.50;99.90
23237;DHT22;11787;52.018;8.570;2023-05-10T03:26:06;14.40;99.90
23237;DHT22;11787;52.018;8.570;2023-05-10T03:28:34;14.40;99.90
23237;DHT22;11787;52.018;8.570;2023-05-10T03:31:00;14.40;99.90
23237;DHT22;11787;52.018;8.570;2023-05-10T03:33:27;14.40;99.90
23237;DHT22;11787;52.018;8.570;2023-05-10T03:35:53;14.40;99.90
23237;DHT22;11787;52.018;8.570;2023-05-10T03:38:19;14.30;99.90
23237;DHT22;11787;52.018;8.570;2023-05-10T03:40:44;14.20;99.90
23237;DHT22;11787;52.018;8.570;2023-05-10T03:43:10;14.30;99.90
23237;DHT22;11787;52.018;8.570;2023-05-10T03:45:36;14.30;99.90
23237;DHT22;11787;52.018;8.570;2023-05-10T03:48:01;14.30;99.90
23237;DHT22;11787;52.018;8.570;2023-05-10T03:50:27;14.40;99.90
23237;DHT22;11787;52.018;8.570;2023-05-10T03:52:52;14.20;99.90
23237;DHT22;11787;52.018;8.570;2023-05-10T03:55:18;14.20;99.90
23237;DHT22;11787;52.018;8.570;2023-05-10T03:57:44;14.20;99.90
23237;DHT22;11787;52.018;8.570;2023-05-10T04:00:10;14.20;99.90
23237;DHT22;11787;52.018;8.570;2023-05-10T04:02:36;14.10;99.90
23237;DHT22;11787;52.018;8.570;2023-05-10T04:05:01;14.10;99.90
23237;DHT22;11787;52.018;8.570;2023-05-10T04:07:27;14.10;99.90
23237;DHT22;11787;52.018;8.570;2023-05-10T04:09:53;14.00;99.90
23237;DHT22;11787;52.018;8.570;2023-05-10T04:12:19;14.00;99.90
23237;DHT22;11787;52.018;8.570;2023-05-10T04:14:44;13.90;99.90
23237;DHT22;11787;52.018;8.570;2023-05-10T04:17:10;13.90;99.90
23237;DHT22;11787;52.018;8.570;2023-05-10T04:19:35;13.90;99.90
23237;DHT22;11787;52.018;8.570;2023-05-10T04:22:02;13.90;99.90
23237;DHT22;11787;52.018;8.570;2023-05-10T04:24:28;13.80;99.90
23237;DHT22;11787;52.018;8.570;2023-05-10T04:26:54;13.90;99.90
23237;DHT22;11787;52.018;8.570;2023-05-10T04:29:20;13.90;99.90
23237;DHT22;11787;52.018;8.570;2023-05-10T04:31:46;13.90;99.90
23237;DHT22;11787;52.018;8.570;2023-05-10T04:34:11;13.90;99.90
23237;DHT22;11787;52.018;8.570;2023-05-10T04:36:37;13.90;99.90
23237;DHT22;11787;52.018;8.570;2023-05-10T04:39:03;13.90;99.90
23237;DHT22;11787;52.018;8.570;2023-05-10T04:41:29;13.80;99.90
23237;DHT22;11787;52.018;8.570;2023-05-10T04:43:55;13.80;99.90
23237;DHT22;11787;52.018;8.570;2023-05-10T04:46:21;13.70;99.90
23237;DHT22;11787;52.018;8.570;2023-05-10T04:48:47;13.70;99.90
23237;DHT22;11787;52.018;8.570;2023-05-10T04:51:12;13.70;99.90
23237;DHT22;11787;52.018;8.570;2023-05-10T04:53:38;13.70;99.90
23237;DHT22;11787;52.018;8.570;2023-05-10T04:56:04;13.70;99.90
23237;DHT22;11787;52.018;8.570;2023-05-10T04:58:30;13.70;99.90
23237;DHT22;11787;52.018;8.570;2023-05-10T05:00:55;13.70;99.90
23237;DHT22;11787;52.018;8.570;2023-05-10T05:03:21;13.70;99.90
23237;DHT22;11787;52.018;8.570;2023-05-10T05:05:47;13.60;99.90
23237;DHT22;11787;52.018;8.570;2023-05-10T05:08:13;13.60;99.90
23237;DHT22;11787;52.018;8.570;2023-05-10T05:10:38;13.60;99.90
23237;DHT22;11787;52.018;8.570;2023-05-10T05:13:04;13.60;99.90
23237;DHT22;11787;52.018;8.570;2023-05-10T05:15:30;13.70;99.90
23237;DHT22;11787;52.018;8.570;2023-05-10T05:17:56;13.70;99.90
23237;DHT22;11787;52.018;8.570;2023-05-10T05:20:21;13.70;99.90
23237;DHT22;11787;52.018;8.570;2023-05-10T05:22:47;13.70;99.90
23237;DHT22;11787;52.018;8.570;2023-05-10T05:25:13;13.70;99.90
23237;DHT22;11787;52.018;8.570;2023-05-10T05:27:39;13.70;99.90
23237;DHT22;11787;52.018;8.570;2023-05-10T05:30:05;13.70;99.90
23237;DHT22;11787;52.018;8.570;2023-05-10T05:32:31;13.70;99.90
23237;DHT22;11787;52.018;8.570;2023-05-10T05:34:56;13.70;99.90
23237;DHT22;11787;52.018;8.570;2023-05-10T05:37:22;13.70;99.90
23237;DHT22;11787;52.018;8.570;2023-05-10T05:39:48;13.70;99.90
23237;DHT22;11787;52.018;8.570;2023-05-10T05:42:14;13.70;99.90
23237;DHT22;11787;52.018;8.570;2023-05-10T05:44:40;13.60;99.90
23237;DHT22;11787;52.018;8.570;2023-05-10T05:47:06;13.60;99.90
23237;DHT22;11787;52.018;8.570;2023-05-10T05:49:32;13.50;99.90
23237;DHT22;11787;52.018;8.570;2023-05-10T05:52:01;13.60;99.90
23237;DHT22;11787;52.018;8.570;2023-05-10T05:54:28;13.60;99.90
23237;DHT22;11787;52.018;8.570;2023-05-10T05:56:57;13.50;99.90
23237;DHT22;11787;52.018;8.570;2023-05-10T05:59:23;13.50;99.90
23237;DHT22;11787;52.018;8.570;2023-05-10T06:01:49;13.50;99.90
23237;DHT22;11787;52.018;8.570;2023-05-10T06:04:15;13.60;99.90
23237;DHT22;11787;52.018;8.570;2023-05-10T06:06:40;13.60;99.90
23237;DHT22;11787;52.018;8.570;2023-05-10T06:09:06;13.60;99.90
23237;DHT22;11787;52.018;8.570;2023-05-10T06:11:31;13.60;99.90
23237;DHT22;11787;52.018;8.570;2023-05-10T06:13:58;13.70;99.90
23237;DHT22;11787;52.018;8.570;2023-05-10T06:16:23;13.60;99.90
23237;DHT22;11787;52.018;8.570;2023-05-10T06:18:49;13.60;99.90
23237;DHT22;11787;52.018;8.570;2023-05-10T06:21:14;13.50;99.90
23237;DHT22;11787;52.018;8.570;2023-05-10T06:23:41;13.50;99.90
23237;DHT22;11787;52.018;8.570;2023-05-10T06:26:06;13.50;99.90
23237;DHT22;11787;52.018;8.570;2023-05-10T06:28:32;13.50;99.90
23237;DHT22;11787;52.018;8.570;2023-05-10T06:30:58;13.50;99.90
23237;DHT22;11787;52.018;8.570;2023-05-10T06:33:24;13.50;99.90
23237;DHT22;11787;52.018;8.570;2023-05-10T06:35:49;13.50;99.90
23237;DHT22;11787;52.018;8.570;2023-05-10T06:38:15;13.50;99.90
23237;DHT22;11787;52.018;8.570;2023-05-10T06:40:43;13.60;99.90
23237;DHT22;11787;52.018;8.570;2023-05-10T06:43:10;13.60;99.90
23237;DHT22;11787;52.018;8.570;2023-05-10T06:45:36;13.60;99.90
23237;DHT22;11787;52.018;8.570;2023-05-10T06:48:01;13.60;99.90
23237;DHT22;11787;52.018;8.570;2023-05-10T06:50:27;13.50;99.90
23237;DHT22;11787;52.018;8.570;2023-05-10T06:52:53;13.50;99.90
23237;DHT22;11787;52.018;8.570;2023-05-10T06:55:18;13.50;99.90
23237;DHT22;11787;52.018;8.570;2023-05-10T06:57:44;13.60;99.90
23237;DHT22;11787;52.018;8.570;2023-05-10T07:00:10;13.60;99.90
23237;DHT22;11787;52.018;8.570;2023-05-10T07:02:36;13.70;99.90
23237;DHT22;11787;52.018;8.570;2023-05-10T07:05:02;13.70;99.90
23237;DHT22;11787;52.018;8.570;2023-05-10T07:07:27;13.80;99.90
23237;DHT22;11787;52.018;8.570;2023-05-10T07:09:54;13.90;99.90
23237;DHT22;11787;52.018;8.570;2023-05-10T07:12:20;13.80;99.90
23237;DHT22;11787;52.018;8.570;2023-05-10T07:14:45;13.90;99.90
23237;DHT22;11787;52.018;8.570;2023-05-10T07:17:11;13.90;99.90
23237;DHT22;11787;52.018;8.570;2023-05-10T07:19:37;14.00;99.90
23237;DHT22;11787;52.018;8.570;2023-05-10T07:22:03;13.90;99.90
23237;DHT22;11787;52.018;8.570;2023-05-10T07:24:28;13.90;99.90
23237;DHT22;11787;52.018;8.570;2023-05-10T07:26:54;13.90;99.90
23237;DHT22;11787;52.018;8.570;2023-05-10T07:29:20;13.90;99.90
23237;DHT22;11787;52.018;8.570;2023-05-10T07:31:45;13.90;99.90
23237;DHT22;11787;52.018;8.570;2023-05-10T07:34:11;13.90;99.90
23237;DHT22;11787;52.018;8.570;2023-05-10T07:36:36;14.00;99.90
23237;DHT22;11787;52.018;8.570;2023-05-10T07:39:02;14.10;99.90
23237;DHT22;11787;52.018;8.570;2023-05-10T07:41:28;14.10;99.90
23237;DHT22;11787;52.018;8.570;2023-05-10T07:43:53;14.10;99.90
23237;DHT22;11787;52.018;8.570;2023-05-10T07:46:19;14.00;99.90
23237;DHT22;11787;52.018;8.570;2023-05-10T07:48:45;14.10;99.90
23237;DHT22;11787;52.018;8.570;2023-05-10T07:51:10;14.10;99.90
23237;DHT22;11787;52.018;8.570;2023-05-10T07:53:37;14.20;99.90
23237;DHT22;11787;52.018;8.570;2023-05-10T07:56:21;14.20;99.90
23237;DHT22;11787;52.018;8.570;2023-05-10T07:58:47;14.10;99.90
23237;DHT22;11787;52.018;8.570;2023-05-10T08:01:12;14.10;99.90
23237;DHT22;11787;52.018;8.570;2023-05-10T08:03:38;14.20;99.90
23237;DHT22;11787;52.018;8.570;2023-05-10T08:06:03;14.20;99.90
23237;DHT22;11787;52.018;8.570;2023-05-10T08:08:29;14.20;99.90
23237;DHT22;11787;52.018;8.570;2023-05-10T08:10:55;14.30;99.90
23237;DHT22;11787;52.018;8.570;2023-05-10T08:13:21;14.30;99.90
23237;DHT22;11787;52.018;8.570;2023-05-10T08:15:46;14.40;99.90
23237;DHT22;11787;52.018;8.570;2023-05-10T08:18:12;14.40;99.90
23237;DHT22;11787;52.018;8.570;2023-05-10T08:20:38;14.40;99.90
23237;DHT22;11787;52.018;8.570;2023-05-10T08:23:03;14.40;99.90
23237;DHT22;11787;52.018;8.570;2023-05-10T08:25:29;14.40;99.90
23237;DHT22;11787;52.018;8.570;2023-05-10T08:27:54;14.60;99.90
23237;DHT22;11787;52.018;8.570;2023-05-10T08:30:20;14.60;99.90
23237;DHT22;11787;52.018;8.570;2023-05-10T08:32:46;14.70;99.90
23237;DHT22;11787;52.018;8.570;2023-05-10T08:35:11;14.80;99.90
23237;DHT22;11787;52.018;8.570;2023-05-10T08:37:37;14.80;99.90
23237;DHT22;11787;52.018;8.570;2023-05-10T08:40:03;14.90;99.90
23237;DHT22;11787;52.018;8.570;2023-05-10T08:42:30;14.80;99.90
23237;DHT22;11787;52.018;8.570;2023-05-10T08:44:59;14.90;99.90
23237;DHT22;11787;52.018;8.570;2023-05-10T08:47:25;15.00;99.90
23237;DHT22;11787;52.018;8.570;2023-05-10T08:49:51;15.00;99.90
23237;DHT22;11787;52.018;8.570;2023-05-10T08:52:18;15.10;99.90
23237;DHT22;11787;52.018;8.570;2023-05-10T08:54:44;15.10;99.90
23237;DHT22;11787;52.018;8.570;2023-05-10T08:57:10;15.10;99.90
23237;DHT22;11787;52.018;8.570;2023-05-10T08:59:36;15.00;99.90
23237;DHT22;11787;52.018;8.570;2023-05-10T09:02:05;15.00;99.90
23237;DHT22;11787;52.018;8.570;2023-05-10T09:04:31;15.00;99.90
23237;DHT22;11787;52.018;8.570;2023-05-10T09:06:56;14.90;99.90
23237;DHT22;11787;52.018;8.570;2023-05-10T09:09:24;14.90;99.90
23237;DHT22;11787;52.018;8.570;2023-05-10T09:11:51;14.80;99.90
23237;DHT22;11787;52.018;8.570;2023-05-10T09:14:18;14.90;99.90
23237;DHT22;11787;52.018;8.570;2023-05-10T09:16:45;14.90;99.90
23237;DHT22;11787;52.018;8.570;2023-05-10T09:19:11;14.60;99.90
23237;DHT22;11787;52.018;8.570;2023-05-10T09:21:37;14.60;99.90
23237;DHT22;11787;52.018;8.570;2023-05-10T09:24:07;14.60;99.90
23237;DHT22;11787;52.018;8.570;2023-05-10T09:26:34;14.70;99.90
23237;DHT22;11787;52.018;8.570;2023-05-10T09:29:01;14.80;99.90
23237;DHT22;11787;52.018;8.570;2023-05-10T09:32:03;14.90;99.90
23237;DHT22;11787;52.018;8.570;2023-05-10T09:34:32;15.00;99.90
23237;DHT22;11787;52.018;8.570;2023-05-10T09:37:00;15.00;99.90
23237;DHT22;11787;52.018;8.570;2023-05-10T09:39:37;15.10;99.90
23237;DHT22;11787;52.018;8.570;2023-05-10T09:42:05;15.10;99.90
23237;DHT22;11787;52.018;8.570;2023-05-10T09:44:32;15.20;99.90
23237;DHT22;11787;52.018;8.570;2023-05-10T09:46:58;15.20;99.90
23237;DHT22;11787;52.018;8.570;2023-05-10T09:49:24;15.20;99.90
23237;DHT22;11787;52.018;8.570;2023-05-10T09:52:04;15.40;99.90
23237;DHT22;11787;52.018;8.570;2023-05-10T09:54:30;15.70;99.90
23237;DHT22;11787;52.018;8.570;2023-05-10T09:56:56;16.00;99.90
23237;DHT22;11787;52.018;8.570;2023-05-10T09:59:25;16.30;99.90
23237;DHT22;11787;52.018;8.570;2023-05-10T10:01:52;16.30;99.90
23237;DHT22;11787;52.018;8.570;2023-05-10T10:04:20;16.30;99.90
23237;DHT22;11787;52.018;8.570;2023-05-10T10:06:46;16.40;99.90
23237;DHT22;11787;52.018;8.570;2023-05-10T10:09:23;16.60;99.90
23237;DHT22;11787;52.018;8.570;2023-05-10T10:11:49;16.80;99.90
23237;DHT22;11787;52.018;8.570;2023-05-10T10:14:18;17.10;99.90
23237;DHT22;11787;52.018;8.570;2023-05-10T10:16:44;17.30;99.90
23237;DHT22;11787;52.018;8.570;2023-05-10T10:19:10;17.20;99.90
23237;DHT22;11787;52.018;8.570;2023-05-10T10:21:35;17.00;99.90
23237;DHT22;11787;52.018;8.570;2023-05-10T10:24:01;17.10;99.90
23237;DHT22;11787;52.018;8.570;2023-05-10T10:26:27;17.50;99.90
23237;DHT22;11787;52.018;8.570;2023-05-10T10:29:20;17.90;99.90
23237;DHT22;11787;52.018;8.570;2023-05-10T10:31:51;18.10;99.90
23237;DHT22;11787;52.018;8.570;2023-05-10T10:34:26;18.40;99.90
23237;DHT22;11787;52.018;8.570;2023-05-10T10:36:56;18.70;99.90
23237;DHT22;11787;52.018;8.570;2023-05-10T10:39:23;19.20;99.90
23237;DHT22;11787;52.018;8.570;2023-05-10T10:41:55;19.20;99.90
23237;DHT22;11787;52.018;8.570;2023-05-10T10:52:20;19.40;99.90
23237;DHT22;11787;52.018;8.570;2023-05-10T10:54:53;19.80;99.90
23237;DHT22;11787;52.018;8.570;2023-05-10T10:57:20;20.00;99.90
23237;DHT22;11787;52.018;8.570;2023-05-10T10:59:47;20.20;99.90
23237;DHT22;11787;52.018;8.570;2023-05-10T11:07:54;20.40;99.90
23237;DHT22;11787;52.018;8.570;2023-05-10T11:10:23;20.00;99.90
23237;DHT22;11787;52.018;8.570;2023-05-10T11:13:03;19.90;99.90
23237;DHT22;11787;52.018;8.570;2023-05-10T11:15:36;20.00;99.90
23237;DHT22;11787;52.018;8.570;2023-05-10T11:18:28;20.50;99.90
23237;DHT22;11787;52.018;8.570;2023-05-10T11:21:02;20.50;99.90
23237;DHT22;11787;52.018;8.570;2023-05-10T11:26:07;19.70;99.90
23237;DHT22;11787;52.018;8.570;2023-05-10T11:28:44;19.30;99.90
23237;DHT22;11787;52.018;8.570;2023-05-10T11:31:10;19.10;99.90
23237;DHT22;11787;52.018;8.570;2023-05-10T11:33:44;18.90;99.90
23237;DHT22;11787;52.018;8.570;2023-05-10T11:36:32;19.20;99.90
23237;DHT22;11787;52.018;8.570;2023-05-10T11:38:58;19.20;99.90
23237;DHT22;11787;52.018;8.570;2023-05-10T11:41:24;19.50;99.90
23237;DHT22;11787;52.018;8.570;2023-05-10T11:43:51;19.70;99.90
23237;DHT22;11787;52.018;8.570;2023-05-10T11:46:20;19.80;99.90
23237;DHT22;11787;52.018;8.570;2023-05-10T11:48:47;19.60;99.90
23237;DHT22;11787;52.018;8.570;2023-05-10T11:51:14;19.70;99.90
23237;DHT22;11787;52.018;8.570;2023-05-10T11:53:40;20.00;99.90
23237;DHT22;11787;52.018;8.570;2023-05-10T11:56:07;20.10;99.90
23237;DHT22;11787;52.018;8.570;2023-05-10T11:58:33;20.30;99.90
23237;DHT22;11787;52.018;8.570;2023-05-10T12:01:00;20.60;99.90
23237;DHT22;11787;52.018;8.570;2023-05-10T12:03:29;20.40;99.90
23237;DHT22;11787;52.018;8.570;2023-05-10T12:05:56;20.10;99.90
23237;DHT22;11787;52.018;8.570;2023-05-10T12:08:24;19.80;99.90
23237;DHT22;11787;52.018;8.570;2023-05-10T12:10:51;19.20;99.90
23237;DHT22;11787;52.018;8.570;2023-05-10T12:13:17;19.10;99.90
23237;DHT22;11787;52.018;8.570;2023-05-10T12:15:43;19.00;99.90
23237;DHT22;11787;52.018;8.570;2023-05-10T12:18:10;18.90;99.90
23237;DHT22;11787;52.018;8.570;2023-05-10T12:20:36;18.70;99.90
23237;DHT22;11787;52.018;8.570;2023-05-10T12:23:02;18.10;99.90
23237;DHT22;11787;52.018;8.570;2023-05-10T12:25:34;17.90;99.90
23237;DHT22;11787;52.018;8.570;2023-05-10T12:28:03;17.60;99.90
23237;DHT22;11787;52.018;8.570;2023-05-10T12:30:31;17.60;99.90
23237;DHT22;11787;52.018;8.570;2023-05-10T12:33:17;17.60;99.90
23237;DHT22;11787;52.018;8.570;2023-05-10T12:35:48;17.60;99.90
23237;DHT22;11787;52.018;8.570;2023-05-10T12:38:32;17.70;99.90
23237;DHT22;11787;52.018;8.570;2023-05-10T12:41:00;17.80;99.90
23237;DHT22;11787;52.018;8.570;2023-05-10T12:43:26;17.80;99.90
23237;DHT22;11787;52.018;8.570;2023-05-10T12:45:52;17.90;99.90
23237;DHT22;11787;52.018;8.570;2023-05-10T12:48:18;17.90;99.90
23237;DHT22;11787;52.018;8.570;2023-05-10T12:50:44;17.90;99.90
23237;DHT22;11787;52.018;8.570;2023-05-10T12:53:09;17.70;99.90
23237;DHT22;11787;52.018;8.570;2023-05-10T12:55:35;17.70;99.90
23237;DHT22;11787;52.018;8.570;2023-05-10T12:58:00;17.80;99.90
23237;DHT22;11787;52.018;8.570;2023-05-10T13:00:26;17.90;99.90
23237;DHT22;11787;52.018;8.570;2023-05-10T13:02:52;18.00;99.90
23237;DHT22;11787;52.018;8.570;2023-05-10T13:05:18;18.10;99.90
23237;DHT22;11787;52.018;8.570;2023-05-10T13:07:44;18.40;99.90
23237;DHT22;11787;52.018;8.570;2023-05-10T13:10:10;18.60;99.90
23237;DHT22;11787;52.018;8.570;2023-05-10T13:12:35;18.70;99.90
23237;DHT22;11787;52.018;8.570;2023-05-10T13:15:01;18.90;99.90
23237;DHT22;11787;52.018;8.570;2023-05-10T13:17:28;19.10;99.90
23237;DHT22;11787;52.018;8.570;2023-05-10T13:19:54;19.10;99.90
23237;DHT22;11787;52.018;8.570;2023-05-10T13:22:20;19.30;99.90
23237;DHT22;11787;52.018;8.570;2023-05-10T13:24:45;19.40;99.90
23237;DHT22;11787;52.018;8.570;2023-05-10T13:27:11;19.20;99.90
23237;DHT22;11787;52.018;8.570;2023-05-10T13:29:36;19.00;99.90
23237;DHT22;11787;52.018;8.570;2023-05-10T13:32:02;18.90;99.90
23237;DHT22;11787;52.018;8.570;2023-05-10T13:34:27;18.80;99.90
23237;DHT22;11787;52.018;8.570;2023-05-10T13:36:53;18.70;99.90
23237;DHT22;11787;52.018;8.570;2023-05-10T13:39:21;18.60;99.90
23237;DHT22;11787;52.018;8.570;2023-05-10T13:41:46;18.40;99.90
23237;DHT22;11787;52.018;8.570;2023-05-10T13:44:13;18.20;99.90
23237;DHT22;11787;52.018;8.570;2023-05-10T13:46:40;17.70;99.90
23237;DHT22;11787;52.018;8.570;2023-05-10T13:49:05;17.20;99.90
23237;DHT22;11787;52.018;8.570;2023-05-10T13:51:31;16.80;99.90
23237;DHT22;11787;52.018;8.570;2023-05-10T13:53:57;16.50;99.90
23237;DHT22;11787;52.018;8.570;2023-05-10T13:56:23;16.40;99.90
23237;DHT22;11787;52.018;8.570;2023-05-10T13:58:49;16.30;99.90
23237;DHT22;11787;52.018;8.570;2023-05-10T14:01:14;16.30;99.90
23237;DHT22;11787;52.018;8.570;2023-05-10T14:03:40;16.30;99.90
23237;DHT22;11787;52.018;8.570;2023-05-10T14:06:06;16.30;99.90
23237;DHT22;11787;52.018;8.570;2023-05-10T14:08:33;16.20;99.90
23237;DHT22;11787;52.018;8.570;2023-05-10T14:10:59;16.20;99.90
23237;DHT22;11787;52.018;8.570;2023-05-10T14:13:25;16.20;99.90
23237;DHT22;11787;52.018;8.570;2023-05-10T14:15:50;16.20;99.90
23237;DHT22;11787;52.018;8.570;2023-05-10T14:18:16;16.20;99.90
23237;DHT22;11787;52.018;8.570;2023-05-10T14:20:42;16.20;99.90
23237;DHT22;11787;52.018;8.570;2023-05-10T14:23:08;16.20;99.90
23237;DHT22;11787;52.018;8.570;2023-05-10T14:25:33;16.20;99.90
23237;DHT22;11787;52.018;8.570;2023-05-10T14:27:59;16.20;99.90
23237;DHT22;11787;52.018;8.570;2023-05-10T14:30:25;16.20;99.90
23237;DHT22;11787;52.018;8.570;2023-05-10T14:32:51;16.30;99.90
23237;DHT22;11787;52.018;8.570;2023-05-10T14:35:19;16.30;99.90
23237;DHT22;11787;52.018;8.570;2023-05-10T14:37:44;16.40;99.90
23237;DHT22;11787;52.018;8.570;2023-05-10T14:40:10;16.50;99.90
23237;DHT22;11787;52.018;8.570;2023-05-10T14:42:41;16.60;99.90
23237;DHT22;11787;52.018;8.570;2023-05-10T14:45:07;16.50;99.90
23237;DHT22;11787;52.018;8.570;2023-05-10T14:47:34;16.70;99.90
23237;DHT22;11787;52.018;8.570;2023-05-10T14:49:59;16.70;99.90
23237;DHT22;11787;52.018;8.570;2023-05-10T14:52:25;16.90;99.90
23237;DHT22;11787;52.018;8.570;2023-05-10T14:54:51;17.00;99.90
23237;DHT22;11787;52.018;8.570;2023-05-10T14:57:16;17.00;99.90
23237;DHT22;11787;52.018;8.570;2023-05-10T14:59:42;17.00;99.90
23237;DHT22;11787;52.018;8.570;2023-05-10T15:02:08;17.00;99.90
23237;DHT22;11787;52.018;8.570;2023-05-10T15:04:33;17.10;99.90
23237;DHT22;11787;52.018;8.570;2023-05-10T15:06:59;17.00;99.90
23237;DHT22;11787;52.018;8.570;2023-05-10T15:09:25;17.10;99.90
23237;DHT22;11787;52.018;8.570;2023-05-10T15:31:30;16.90;99.90
23237;DHT22;11787;52.018;8.570;2023-05-10T15:33:59;16.90;99.90
23237;DHT22;11787;52.018;8.570;2023-05-10T15:36:25;17.00;99.90
23237;DHT22;11787;52.018;8.570;2023-05-10T15:38:50;17.10;99.90
23237;DHT22;11787;52.018;8.570;2023-05-10T15:41:16;17.20;99.90
23237;DHT22;11787;52.018;8.570;2023-05-10T15:43:42;17.20;99.90
23237;DHT22;11787;52.018;8.570;2023-05-10T15:46:07;17.20;99.90
23237;DHT22;11787;52.018;8.570;2023-05-10T15:48:33;17.10;99.90
23237;DHT22;11787;52.018;8.570;2023-05-10T15:50:59;17.10;99.90
23237;DHT22;11787;52.018;8.570;2023-05-10T15:53:24;17.10;99.90
23237;DHT22;11787;52.018;8.570;2023-05-10T15:55:50;17.10;99.90
23237;DHT22;11787;52.018;8.570;2023-05-10T15:58:16;17.10;99.90
23237;DHT22;11787;52.018;8.570;2023-05-10T16:00:41;17.00;99.90
23237;DHT22;11787;52.018;8.570;2023-05-10T16:03:07;17.00;99.90
23237;DHT22;11787;52.018;8.570;2023-05-10T16:05:32;17.00;99.90
23237;DHT22;11787;52.018;8.570;2023-05-10T16:08:01;16.90;99.90
23237;DHT22;11787;52.018;8.570;2023-05-10T16:10:27;16.80;99.90
23237;DHT22;11787;52.018;8.570;2023-05-10T16:12:55;16.70;99.90
23237;DHT22;11787;52.018;8.570;2023-05-10T16:15:21;16.70;99.90
23237;DHT22;11787;52.018;8.570;2023-05-10T16:17:47;16.60;99.90
23237;DHT22;11787;52.018;8.570;2023-05-10T16:20:12;16.50;99.90
23237;DHT22;11787;52.018;8.570;2023-05-10T16:22:38;16.40;99.90